Time;durP1;ratioP1;P1;durP2;ratioP2;P2;SDS_P1;SDS_P2;PMS_P1;PMS_P2;Temp;Humidity;BMP_temperature;BMP_pressure;BME280_temperature;BME280_humidity;BME280_pressure;Samples;Min_cycle;Max_cycle;Signal;HPM_P1;HPM_P2
2022/06/19 00:02:26;;;;;;;5.15;1.35;;;15.80;82.90;;;;;;5099350;28;20032;-74
2022/06/19 00:04:55;;;;;;;4.20;1.40;;;15.80;83.10;;;;;;5101467;28;20023;-70
2022/06/19 00:07:22;;;;;;;5.57;1.40;;;15.80;83.10;;;;;;5098780;28;20063;-71
2022/06/19 00:09:49;;;;;;;4.45;1.40;;;15.80;83.00;;;;;;5099883;28;20022;-71
2022/06/19 00:12:18;;;;;;;4.80;1.30;;;15.80;83.00;;;;;;5098824;28;20035;-73
2022/06/19 00:14:45;;;;;;;3.30;1.10;;;15.80;82.80;;;;;;5100253;28;21317;-71
2022/06/19 00:17:13;;;;;;;7.20;0.90;;;15.80;82.90;;;;;;5104661;28;20123;-70
2022/06/19 00:19:40;;;;;;;6.32;1.50;;;15.70;82.90;;;;;;5087442;28;20376;-71
2022/06/19 00:22:07;;;;;;;13.73;1.65;;;15.70;82.90;;;;;;5102089;28;20055;-72
2022/06/19 00:24:34;;;;;;;6.30;1.40;;;15.70;82.90;;;;;;5099476;28;20032;-71
2022/06/19 00:27:00;;;;;;;3.10;1.13;;;15.70;83.10;;;;;;5101043;28;20047;-71
2022/06/19 00:29:28;;;;;;;7.72;2.00;;;15.70;83.90;;;;;;5102029;28;20482;-74
2022/06/19 00:31:55;;;;;;;4.82;0.95;;;15.60;83.00;;;;;;5098692;28;20141;-72
2022/06/19 00:34:22;;;;;;;6.72;1.20;;;15.60;82.80;;;;;;5102040;28;20097;-72
2022/06/19 00:36:50;;;;;;;5.55;1.20;;;15.60;82.70;;;;;;5099428;28;20022;-73
2022/06/19 00:39:18;;;;;;;8.40;1.73;;;15.60;82.60;;;;;;5103868;28;20039;-73
2022/06/19 00:41:45;;;;;;;3.75;1.15;;;15.60;82.60;;;;;;5101824;28;20109;-70
2022/06/19 00:44:14;;;;;;;5.07;1.13;;;15.60;82.60;;;;;;5103267;28;20032;-74
2022/06/19 00:47:14;;;;;;;6.82;1.50;;;15.50;82.40;;;;;;5103504;28;20020;-73
2022/06/19 00:49:51;;;;;;;6.63;0.93;;;15.50;82.40;;;;;;5103949;28;20390;-74
2022/06/19 00:52:32;;;;;;;4.15;1.67;;;15.50;82.30;;;;;;5105877;28;20028;-72
2022/06/19 00:55:09;;;;;;;3.25;0.93;;;15.50;82.30;;;;;;5105597;28;20047;-75
2022/06/19 00:57:47;;;;;;;5.20;0.98;;;15.50;82.40;;;;;;5099563;28;20487;-76
2022/06/19 01:00:24;;;;;;;13.85;1.77;;;15.40;82.30;;;;;;5100815;28;20035;-78
2022/06/19 01:03:00;;;;;;;5.53;1.10;;;15.50;82.60;;;;;;5102942;28;20074;-72
2022/06/19 01:05:29;;;;;;;5.32;1.20;;;15.50;82.70;;;;;;5102263;28;20136;-72
2022/06/19 01:07:59;;;;;;;5.03;1.48;;;15.40;82.60;;;;;;5101793;28;20023;-71
2022/06/19 01:10:25;;;;;;;3.15;1.20;;;15.40;82.60;;;;;;5099907;28;20031;-73
2022/06/19 01:12:53;;;;;;;6.50;1.38;;;15.40;82.60;;;;;;5102567;28;20111;-71
2022/06/19 01:15:24;;;;;;;4.25;0.82;;;15.40;82.50;;;;;;5103624;28;20046;-73
2022/06/19 01:17:55;;;;;;;1.85;1.15;;;15.40;82.50;;;;;;5098235;28;20024;-72
2022/06/19 01:20:23;;;;;;;6.20;1.45;;;15.40;82.60;;;;;;5103911;28;20670;-73
2022/06/19 01:23:19;;;;;;;3.38;1.27;;;15.40;82.60;;;;;;5103637;28;20548;-71
2022/06/19 01:25:45;;;;;;;2.55;0.90;;;15.40;82.60;;;;;;5104324;28;20031;-71
2022/06/19 01:31:09;;;;;;;;;;;15.40;83.00;;;;;;5106472;28;20046;-72
2022/06/19 01:33:51;;;;;;;6.32;1.27;;;15.40;83.10;;;;;;5099439;28;19922;-74
2022/06/19 01:36:20;;;;;;;10.88;1.60;;;15.40;83.00;;;;;;5103070;28;20368;-71
2022/06/19 01:38:51;;;;;;;7.75;1.45;;;15.40;83.10;;;;;;5105294;28;20154;-72
2022/06/19 01:41:29;;;;;;;6.00;2.00;;;15.40;83.00;;;;;;5084639;28;20402;-72
2022/06/19 01:43:56;;;;;;;4.40;1.35;;;15.40;82.80;;;;;;5103717;28;20029;-72
2022/06/19 01:46:25;;;;;;;4.53;0.98;;;15.40;82.90;;;;;;5100864;28;20471;-70
2022/06/19 01:48:52;;;;;;;1.83;0.88;;;15.30;82.70;;;;;;5099779;28;20616;-75
2022/06/19 01:51:18;;;;;;;5.07;1.20;;;15.30;82.70;;;;;;5101578;28;20393;-71
2022/06/19 01:54:08;;;;;;;4.72;1.27;;;15.30;82.60;;;;;;5101932;28;20054;-70
2022/06/19 01:56:34;;;;;;;4.00;0.98;;;15.30;82.60;;;;;;5098001;28;20830;-71
2022/06/19 01:59:09;;;;;;;6.53;1.73;;;15.30;82.60;;;;;;5102981;28;20028;-72
2022/06/19 02:01:37;;;;;;;7.40;1.50;;;15.30;82.60;;;;;;5104223;28;20024;-71
2022/06/19 02:04:06;;;;;;;4.93;1.55;;;15.30;82.50;;;;;;5101922;28;20028;-74
2022/06/19 02:06:43;;;;;;;5.80;1.83;;;15.20;82.40;;;;;;5101777;28;20020;-72
2022/06/19 02:09:10;;;;;;;6.82;1.58;;;15.20;82.40;;;;;;5099661;28;20038;-75
2022/06/19 02:11:37;;;;;;;11.80;7.10;;;15.20;82.70;;;;;;5102800;28;20016;-70
2022/06/19 02:14:06;;;;;;;13.93;6.88;;;15.20;83.60;;;;;;5107693;28;20078;-71
2022/06/19 02:16:37;;;;;;;8.60;4.22;;;15.20;84.50;;;;;;5101075;28;20097;-73
2022/06/19 02:19:04;;;;;;;10.07;2.55;;;15.30;84.10;;;;;;5103927;28;20047;-75
2022/06/19 02:21:40;;;;;;;7.28;2.13;;;15.30;84.10;;;;;;5103617;28;20027;-72
2022/06/19 02:24:09;;;;;;;5.75;1.65;;;15.30;84.10;;;;;;5101540;28;20054;-72
2022/06/19 02:26:38;;;;;;;7.90;2.13;;;15.30;84.20;;;;;;5101553;28;20042;-72
2022/06/19 02:29:09;;;;;;;8.00;1.50;;;15.20;84.40;;;;;;5102027;28;20369;-71
2022/06/19 02:31:41;;;;;;;5.70;1.58;;;15.30;84.30;;;;;;5103595;28;20028;-73
2022/06/19 02:34:33;;;;;;;4.72;1.38;;;15.30;84.10;;;;;;5101768;28;20485;-73
2022/06/19 02:37:03;;;;;;;8.70;1.92;;;15.20;84.10;;;;;;5101543;28;20244;-72
2022/06/19 02:39:57;;;;;;;7.30;2.00;;;15.20;84.60;;;;;;5101240;28;20027;-75
2022/06/19 02:42:44;;;;;;;3.85;1.73;;;15.20;84.40;;;;;;5102575;28;20031;-71
2022/06/19 02:45:14;;;;;;;6.30;1.77;;;15.20;84.70;;;;;;5102200;28;20517;-73
2022/06/19 02:47:41;;;;;;;15.77;2.67;;;15.20;85.10;;;;;;5098996;28;20070;-71
2022/06/19 02:50:12;;;;;;;16.02;2.00;;;15.20;84.90;;;;;;5102529;28;20808;-75
2022/06/19 02:52:38;;;;;;;5.35;2.72;;;15.30;85.10;;;;;;5100779;28;20035;-71
2022/06/19 02:55:06;;;;;;;6.95;1.60;;;15.20;85.20;;;;;;5104691;28;20032;-73
2022/06/19 02:57:33;;;;;;;6.90;2.58;;;15.20;85.10;;;;;;5100690;28;20044;-75
2022/06/19 02:59:59;;;;;;;7.22;2.40;;;15.20;85.10;;;;;;5096547;28;20067;-71
2022/06/19 03:02:28;;;;;;;6.28;1.80;;;15.20;85.00;;;;;;5097012;28;20036;-71
2022/06/19 03:04:58;;;;;;;5.13;1.63;;;15.20;84.70;;;;;;5105913;28;20039;-72
2022/06/19 03:07:26;;;;;;;6.80;2.08;;;15.20;84.70;;;;;;5102072;28;20031;-74
2022/06/19 03:09:54;;;;;;;5.90;1.90;;;15.20;84.80;;;;;;5097628;28;20428;-73
2022/06/19 03:12:21;;;;;;;6.80;3.03;;;15.20;84.90;;;;;;5101877;28;20036;-71
2022/06/19 03:14:48;;;;;;;8.45;2.67;;;15.20;84.90;;;;;;5104309;28;20043;-72
2022/06/19 03:17:17;;;;;;;6.72;2.10;;;15.20;85.00;;;;;;5102598;28;20107;-72
2022/06/19 03:19:43;;;;;;;6.82;2.55;;;15.20;85.00;;;;;;5099383;28;20043;-73
2022/06/19 03:22:11;;;;;;;3.28;1.80;;;15.10;84.90;;;;;;5100990;28;20047;-72
2022/06/19 03:24:39;;;;;;;7.00;2.10;;;15.10;84.90;;;;;;5100868;28;20016;-70
2022/06/19 03:27:06;;;;;;;6.43;2.60;;;15.10;84.90;;;;;;5101015;28;20028;-75
2022/06/19 03:29:33;;;;;;;4.90;2.10;;;15.10;84.80;;;;;;5097366;28;20019;-72
2022/06/19 03:32:00;;;;;;;3.58;1.67;;;15.10;84.70;;;;;;5103474;28;20031;-71
2022/06/19 03:34:27;;;;;;;4.05;2.28;;;15.10;84.80;;;;;;5103713;28;20062;-70
2022/06/19 03:36:53;;;;;;;7.13;2.20;;;15.10;85.20;;;;;;5100928;28;20077;-69
2022/06/19 03:39:20;;;;;;;3.85;1.88;;;15.10;85.20;;;;;;5102207;28;20031;-70
2022/06/19 03:41:46;;;;;;;4.97;1.67;;;15.10;85.00;;;;;;5103687;28;20110;-70
2022/06/19 03:44:13;;;;;;;4.78;2.00;;;15.10;85.00;;;;;;5101517;28;20028;-72
2022/06/19 03:46:40;;;;;;;6.05;2.42;;;15.10;84.90;;;;;;5102508;28;20027;-74
2022/06/19 03:49:09;;;;;;;4.00;1.60;;;15.00;84.90;;;;;;5103711;28;20490;-70
2022/06/19 03:51:35;;;;;;;6.50;1.73;;;15.10;84.90;;;;;;5100084;28;20084;-73
2022/06/19 03:54:02;;;;;;;5.38;1.73;;;15.10;84.90;;;;;;5101035;28;20269;-70
2022/06/19 03:56:32;;;;;;;10.05;2.53;;;15.00;84.90;;;;;;5101803;28;20055;-72
2022/06/19 03:58:59;;;;;;;14.25;2.92;;;15.00;85.10;;;;;;5098546;28;20055;-74
2022/06/19 04:01:28;;;;;;;4.88;2.00;;;15.00;85.10;;;;;;5098885;28;20032;-70
2022/06/19 04:03:56;;;;;;;7.80;2.38;;;15.10;85.20;;;;;;5104736;28;20909;-74
2022/06/19 04:06:25;;;;;;;10.15;2.40;;;15.10;85.30;;;;;;5104704;28;20023;-71
2022/06/19 04:08:53;;;;;;;4.65;2.33;;;15.10;85.40;;;;;;5100979;28;20024;-74
2022/06/19 04:11:22;;;;;;;3.83;1.17;;;15.10;85.50;;;;;;5100623;28;20022;-70
2022/06/19 04:13:49;;;;;;;4.57;1.58;;;15.10;85.40;;;;;;5102055;28;20059;-74
2022/06/19 04:16:22;;;;;;;11.55;2.60;;;15.10;85.50;;;;;;5086641;28;20043;-71
2022/06/19 04:18:50;;;;;;;7.78;1.23;;;15.10;85.50;;;;;;5102989;28;20055;-72
2022/06/19 04:21:19;;;;;;;7.43;1.73;;;15.10;85.50;;;;;;5105043;28;20074;-70
2022/06/19 04:23:46;;;;;;;4.93;2.38;;;15.10;85.60;;;;;;5107413;28;20432;-76
2022/06/19 04:26:15;;;;;;;5.78;1.73;;;15.00;85.40;;;;;;5100298;28;20032;-71
2022/06/19 04:28:43;;;;;;;2.00;1.20;;;15.00;85.10;;;;;;5103810;28;20081;-74
2022/06/19 04:31:10;;;;;;;4.95;1.00;;;15.00;84.90;;;;;;5103052;28;20031;-71
2022/06/19 04:33:39;;;;;;;3.83;1.63;;;15.00;84.60;;;;;;5106478;28;20625;-70
2022/06/19 04:36:09;;;;;;;4.68;1.63;;;15.00;84.50;;;;;;5103719;28;20028;-72
2022/06/19 04:38:37;;;;;;;5.35;1.55;;;15.10;84.50;;;;;;5101266;27;20027;-71
2022/06/19 04:41:04;;;;;;;3.72;1.05;;;15.00;84.20;;;;;;5105935;28;20029;-71
2022/06/19 04:43:31;;;;;;;3.45;1.10;;;15.00;83.90;;;;;;5103479;28;20044;-71
2022/06/19 04:46:05;;;;;;;4.10;1.20;;;15.00;83.80;;;;;;5105641;28;20055;-69
2022/06/19 04:48:33;;;;;;;6.57;1.40;;;14.90;83.70;;;;;;5104604;28;20390;-73
2022/06/19 04:51:00;;;;;;;9.00;1.98;;;14.90;83.80;;;;;;5106219;28;20449;-70
2022/06/19 04:53:27;;;;;;;2.47;1.42;;;14.90;83.80;;;;;;5105564;28;20024;-72
2022/06/19 04:55:54;;;;;;;3.47;0.90;;;14.90;83.70;;;;;;5102187;28;20131;-73
2022/06/19 04:58:22;;;;;;;4.72;0.88;;;14.90;83.60;;;;;;5104400;28;20106;-74
2022/06/19 05:00:50;;;;;;;2.58;0.73;;;14.90;83.60;;;;;;5100107;28;20056;-71
2022/06/19 05:03:19;;;;;;;2.47;0.90;;;14.90;83.50;;;;;;5099169;28;20453;-69
2022/06/19 05:05:46;;;;;;;6.15;1.08;;;14.90;83.40;;;;;;5104816;28;20505;-70
2022/06/19 05:08:14;;;;;;;1.95;1.13;;;14.90;83.40;;;;;;5101198;28;20070;-72
2022/06/19 05:10:41;;;;;;;3.13;1.45;;;14.80;83.20;;;;;;5106450;28;20036;-70
2022/06/19 05:13:19;;;;;;;3.13;1.48;;;14.80;83.20;;;;;;5100952;28;20408;-73
2022/06/19 05:15:47;;;;;;;6.43;2.92;;;14.80;83.20;;;;;;5103011;28;20040;-71
2022/06/19 05:18:14;;;;;;;16.45;8.68;;;14.80;83.20;;;;;;5107464;28;20032;-72
2022/06/19 05:20:41;;;;;;;15.98;10.23;;;14.80;84.00;;;;;;5103688;28;20056;-73
2022/06/19 05:23:09;;;;;;;12.13;6.15;;;14.80;83.40;;;;;;5102657;28;20035;-70
2022/06/19 05:25:36;;;;;;;9.38;3.47;;;14.80;83.40;;;;;;5102963;28;20107;-69
2022/06/19 05:28:03;;;;;;;3.72;2.55;;;14.80;83.40;;;;;;5106489;28;20105;-71
2022/06/19 05:30:30;;;;;;;6.90;2.95;;;14.70;83.20;;;;;;5103829;28;20031;-72
2022/06/19 05:32:57;;;;;;;6.75;1.75;;;14.70;83.20;;;;;;5104856;28;20031;-71
2022/06/19 05:35:23;;;;;;;5.53;1.92;;;14.70;83.20;;;;;;5101926;28;20131;-70
2022/06/19 05:37:50;;;;;;;3.75;1.50;;;14.70;83.20;;;;;;5099072;28;20514;-74
2022/06/19 05:40:16;;;;;;;8.07;1.70;;;14.70;83.10;;;;;;5108622;28;20656;-71
2022/06/19 05:42:43;;;;;;;6.97;1.33;;;14.70;83.10;;;;;;5105837;28;20524;-71
2022/06/19 05:45:10;;;;;;;3.63;0.93;;;14.70;83.00;;;;;;5103121;28;20051;-72
2022/06/19 05:47:37;;;;;;;2.47;1.00;;;14.60;82.90;;;;;;5087981;28;20365;-72
2022/06/19 05:50:03;;;;;;;3.97;1.42;;;14.60;82.70;;;;;;5103808;28;20116;-72
2022/06/19 05:52:30;;;;;;;3.63;1.75;;;14.60;82.60;;;;;;5104836;28;20039;-71
2022/06/19 05:54:56;;;;;;;1.88;1.40;;;14.60;82.60;;;;;;5104663;28;20398;-72
2022/06/19 05:57:23;;;;;;;5.70;1.08;;;14.60;82.60;;;;;;5104001;28;20198;-71
2022/06/19 05:59:50;;;;;;;3.55;1.70;;;14.50;82.40;;;;;;5101483;28;21274;-72
2022/06/19 06:02:21;;;;;;;8.85;1.50;;;14.50;82.40;;;;;;5102835;28;20023;-75
2022/06/19 06:04:48;;;;;;;4.28;1.52;;;14.50;82.40;;;;;;5101025;28;20440;-69
2022/06/19 06:07:15;;;;;;;7.25;5.35;;;14.50;82.50;;;;;;5106021;28;20099;-72
2022/06/19 06:09:41;;;;;;;11.45;7.40;;;14.50;82.60;;;;;;5102153;28;20417;-72
2022/06/19 06:12:08;;;;;;;6.95;4.50;;;14.50;82.60;;;;;;5106115;28;20031;-72
2022/06/19 06:14:34;;;;;;;6.95;3.15;;;14.50;82.70;;;;;;5102599;28;20371;-69
2022/06/19 06:17:01;;;;;;;9.73;3.08;;;14.40;82.60;;;;;;5098801;28;20035;-70
2022/06/19 06:19:28;;;;;;;6.63;2.15;;;14.40;82.90;;;;;;5105940;28;20564;-71
2022/06/19 06:21:54;;;;;;;18.52;11.18;;;14.40;83.90;;;;;;5100064;28;20410;-73
2022/06/19 06:24:21;;;;;;;13.40;8.40;;;14.50;85.10;;;;;;5101721;28;20035;-76
2022/06/19 06:26:48;;;;;;;12.60;5.55;;;14.50;84.70;;;;;;5103019;28;20024;-71
2022/06/19 06:29:16;;;;;;;14.20;7.38;;;14.40;84.20;;;;;;5101968;28;20042;-72
2022/06/19 06:31:42;;;;;;;17.13;8.48;;;14.40;83.90;;;;;;5102364;28;20039;-73
2022/06/19 06:34:09;;;;;;;21.23;9.35;;;14.40;84.30;;;;;;5103978;28;20036;-71
2022/06/19 06:36:35;;;;;;;17.35;6.82;;;14.40;84.60;;;;;;5102906;28;20430;-73
2022/06/19 06:39:02;;;;;;;4.97;3.80;;;14.40;84.40;;;;;;5101700;28;20124;-69
2022/06/19 06:41:28;;;;;;;5.88;3.72;;;14.40;84.40;;;;;;5103101;28;20103;-70
2022/06/19 06:43:55;;;;;;;9.25;3.33;;;14.40;84.50;;;;;;5101279;28;20526;-71
2022/06/19 06:46:25;;;;;;;12.88;3.60;;;14.40;84.50;;;;;;5103863;28;20035;-73
2022/06/19 06:48:59;;;;;;;5.22;2.65;;;14.40;84.70;;;;;;5102077;28;20019;-73
2022/06/19 06:51:27;;;;;;;6.93;2.92;;;14.40;84.90;;;;;;5101821;28;20026;-71
2022/06/19 06:53:55;;;;;;;10.20;3.58;;;14.40;85.10;;;;;;5100590;28;20032;-72
2022/06/19 06:56:22;;;;;;;14.45;4.13;;;14.40;85.10;;;;;;5104055;28;20111;-71
2022/06/19 06:58:48;;;;;;;11.45;3.80;;;14.40;85.50;;;;;;5101813;28;20027;-70
2022/06/19 07:01:18;;;;;;;17.20;12.40;;;14.40;85.60;;;;;;5099756;28;20054;-72
2022/06/19 07:03:47;;;;;;;14.77;9.77;;;14.50;85.40;;;;;;5102004;28;20363;-73
2022/06/19 07:06:13;;;;;;;12.68;6.95;;;14.40;85.30;;;;;;5099871;28;20023;-73
2022/06/19 07:08:42;;;;;;;10.85;6.18;;;14.40;85.60;;;;;;5100030;28;20016;-73
2022/06/19 07:11:20;;;;;;;10.48;4.10;;;14.40;85.70;;;;;;5101085;28;20371;-71
2022/06/19 07:13:46;;;;;;;6.82;4.40;;;14.40;85.80;;;;;;5102519;28;20024;-71
2022/06/19 07:16:13;;;;;;;12.73;4.88;;;14.50;85.90;;;;;;5098991;28;20019;-70
2022/06/19 07:18:39;;;;;;;9.63;4.60;;;14.50;86.00;;;;;;5100931;28;20582;-74
2022/06/19 07:21:06;;;;;;;6.47;3.80;;;14.50;86.10;;;;;;5101544;28;20036;-72
2022/06/19 07:23:33;;;;;;;182.27;143.50;;;14.50;86.20;;;;;;5094914;28;20053;-70
2022/06/19 07:25:59;;;;;;;111.35;86.63;;;14.50;86.20;;;;;;5097373;28;21440;-69
2022/06/19 07:28:26;;;;;;;70.47;52.75;;;14.50;86.30;;;;;;5102952;28;20031;-68
2022/06/19 07:30:53;;;;;;;38.28;29.27;;;14.50;86.50;;;;;;5102463;28;20024;-71
2022/06/19 07:33:20;;;;;;;21.35;14.60;;;14.50;86.80;;;;;;5102420;28;20031;-66
2022/06/19 07:35:47;;;;;;;23.50;9.85;;;14.50;87.20;;;;;;5100388;28;20047;-68
2022/06/19 07:38:13;;;;;;;11.25;5.90;;;14.60;87.40;;;;;;5096513;28;20035;-68
2022/06/19 07:40:40;;;;;;;7.50;4.30;;;14.60;87.40;;;;;;5099145;28;20040;-68
2022/06/19 07:43:06;;;;;;;6.75;4.57;;;14.60;87.50;;;;;;5104898;28;20028;-68
2022/06/19 07:45:33;;;;;;;6.50;3.65;;;14.70;87.70;;;;;;5099850;28;20028;-66
2022/06/19 07:50:46;;;;;;;11.00;4.70;;;14.60;88.20;;;;;;5104562;28;20038;-69
2022/06/19 07:53:13;;;;;;;8.20;4.35;;;14.70;88.50;;;;;;5101493;28;20028;-69
2022/06/19 07:55:39;;;;;;;17.30;3.47;;;14.70;88.60;;;;;;5104469;28;20139;-67
2022/06/19 07:58:07;;;;;;;10.52;4.30;;;14.70;88.70;;;;;;5103681;28;20023;-68
2022/06/19 08:00:36;;;;;;;10.15;3.90;;;14.70;89.00;;;;;;5105731;28;20039;-67
2022/06/19 08:03:04;;;;;;;13.77;7.45;;;14.80;89.10;;;;;;5103728;28;20040;-66
2022/06/19 08:05:33;;;;;;;23.33;12.13;;;14.80;89.20;;;;;;5106090;27;20024;-68
2022/06/19 08:08:01;;;;;;;17.95;9.77;;;14.80;89.30;;;;;;5105001;28;20040;-71
2022/06/19 08:10:30;;;;;;;13.30;6.55;;;14.90;89.30;;;;;;5105020;28;20032;-67
2022/06/19 08:12:57;;;;;;;11.15;4.88;;;14.90;89.30;;;;;;5103076;28;20042;-67
2022/06/19 08:15:24;;;;;;;15.88;5.25;;;14.90;89.30;;;;;;5106397;28;20400;-67
2022/06/19 08:17:51;;;;;;;14.57;4.25;;;15.00;89.20;;;;;;5106341;28;20047;-67
2022/06/19 08:20:20;;;;;;;8.30;3.88;;;15.00;89.20;;;;;;5103175;28;20134;-70
2022/06/19 08:22:46;;;;;;;7.70;4.45;;;15.00;89.20;;;;;;5103546;28;20152;-66
2022/06/19 08:25:14;;;;;;;8.70;3.63;;;15.00;89.10;;;;;;5106735;28;20512;-68
2022/06/19 08:27:43;;;;;;;7.18;4.68;;;15.10;89.20;;;;;;5103591;28;20016;-67
2022/06/19 08:30:25;;;;;;;5.45;2.65;;;15.10;89.20;;;;;;5107405;28;20903;-70
2022/06/19 08:32:52;;;;;;;7.20;3.92;;;15.10;89.30;;;;;;5105753;28;20032;-67
2022/06/19 08:35:19;;;;;;;7.45;3.17;;;15.10;89.30;;;;;;5104806;28;20601;-69
2022/06/19 08:37:50;;;;;;;6.63;3.45;;;15.10;89.30;;;;;;5106256;28;20023;-69
2022/06/19 08:40:29;;;;;;;8.45;4.05;;;15.20;89.30;;;;;;5100726;28;20034;-72
2022/06/19 08:43:32;;;;;;;22.75;18.38;;;15.20;89.30;;;;;;5101881;27;20180;-70
2022/06/19 08:46:17;;;;;;;25.00;13.50;;;15.30;89.30;;;;;;5106090;28;20031;-72
2022/06/19 08:49:01;;;;;;;16.80;8.65;;;15.30;89.40;;;;;;5104085;28;20028;-67
2022/06/19 08:52:03;;;;;;;12.13;7.38;;;15.30;89.40;;;;;;5096683;28;20044;-73
2022/06/19 08:54:39;;;;;;;10.60;4.70;;;15.40;89.40;;;;;;5027783;28;20049;-66
2022/06/19 08:57:40;;;;;;;6.38;4.07;;;15.40;89.20;;;;;;5085723;28;20039;-70
2022/06/19 09:00:11;;;;;;;7.22;2.78;;;15.40;89.00;;;;;;5104119;28;20048;-67
2022/06/19 09:02:49;;;;;;;13.85;5.15;;;15.40;88.80;;;;;;5103946;28;20031;-69
2022/06/19 09:05:36;;;;;;;7.22;5.10;;;15.50;88.70;;;;;;5105103;28;20091;-74
2022/06/19 09:08:27;;;;;;;9.32;4.70;;;15.50;88.50;;;;;;5103704;27;20036;-72
2022/06/19 09:11:12;;;;;;;18.60;4.93;;;15.60;88.50;;;;;;5100987;28;20039;-71
2022/06/19 09:13:42;;;;;;;12.37;4.70;;;15.60;88.40;;;;;;5103244;28;20467;-68
2022/06/19 09:16:37;;;;;;;10.30;3.83;;;15.60;88.40;;;;;;5108160;27;20036;-66
2022/06/19 09:19:19;;;;;;;9.90;3.42;;;15.70;88.40;;;;;;5100440;28;20418;-66
2022/06/19 09:22:07;;;;;;;11.88;3.05;;;15.70;88.40;;;;;;5103803;28;20028;-70
2022/06/19 09:24:52;;;;;;;9.77;3.70;;;15.70;88.20;;;;;;5105478;28;20561;-65
2022/06/19 09:27:24;;;;;;;12.02;3.65;;;15.80;88.20;;;;;;5099312;28;20031;-69
2022/06/19 09:29:58;;;;;;;12.93;5.25;;;15.80;88.00;;;;;;5097187;28;20036;-67
2022/06/19 09:32:50;;;;;;;8.50;4.00;;;15.90;87.60;;;;;;5093953;28;20044;-68
2022/06/19 09:35:32;;;;;;;15.75;3.83;;;15.90;87.40;;;;;;5094501;28;20505;-68
2022/06/19 09:38:07;;;;;;;18.88;3.83;;;16.00;87.00;;;;;;5097509;28;20031;-78
2022/06/19 09:40:44;;;;;;;6.93;2.53;;;16.00;86.50;;;;;;5099065;27;20036;-70
2022/06/19 09:43:34;;;;;;;8.20;2.30;;;16.10;86.20;;;;;;5097788;28;20066;-75
2022/06/19 09:46:15;;;;;;;11.02;2.42;;;16.10;85.70;;;;;;5102007;28;20390;-66
2022/06/19 09:48:47;;;;;;;7.75;2.00;;;16.20;84.90;;;;;;5101825;28;20111;-70
2022/06/19 09:51:38;;;;;;;21.58;2.58;;;16.20;84.60;;;;;;5102269;28;20039;-68
2022/06/19 09:55:00;;;;;;;8.07;2.35;;;16.30;84.20;;;;;;5100774;28;20057;-71
2022/06/19 09:57:57;;;;;;;7.30;2.17;;;16.30;83.90;;;;;;5098073;28;20044;-68
2022/06/19 10:00:29;;;;;;;6.35;2.42;;;16.40;83.60;;;;;;5091357;28;20040;-68
2022/06/19 10:02:55;;;;;;;4.60;1.55;;;16.40;83.20;;;;;;5101005;28;20028;-67
2022/06/19 10:05:51;;;;;;;5.60;1.73;;;16.40;82.80;;;;;;5103441;28;20038;-71
2022/06/19 10:08:21;;;;;;;5.85;1.60;;;16.40;82.50;;;;;;5102638;28;20036;-68
2022/06/19 10:10:56;;;;;;;10.15;2.30;;;16.50;82.20;;;;;;5102782;28;20464;-70
2022/06/19 10:13:37;;;;;;;7.38;2.10;;;16.50;81.50;;;;;;5106124;28;20067;-73
2022/06/19 10:16:23;;;;;;;5.22;2.13;;;16.50;81.20;;;;;;5098282;28;20048;-70
2022/06/19 10:18:54;;;;;;;6.95;2.53;;;16.50;80.80;;;;;;5099452;28;20055;-66
2022/06/19 10:24:47;;;;;;;9.20;3.38;;;16.60;80.20;;;;;;5101226;28;20045;-71
2022/06/19 10:27:52;;;;;;;5.93;2.85;;;16.60;79.70;;;;;;5099647;28;20038;-68
2022/06/19 10:30:39;;;;;;;10.30;3.22;;;16.70;79.70;;;;;;5103546;28;20035;-66
2022/06/19 10:33:24;;;;;;;7.68;2.22;;;16.80;79.80;;;;;;5098662;28;20098;-68
2022/06/19 10:35:55;;;;;;;8.82;2.83;;;16.90;80.00;;;;;;5103228;28;20122;-71
2022/06/19 10:38:34;;;;;;;11.48;3.17;;;17.00;80.00;;;;;;5102719;28;20041;-67
2022/06/19 10:44:24;;;;;;;10.48;3.10;;;17.00;79.50;;;;;;5078293;28;20040;-71
2022/06/19 10:47:19;;;;;;;10.10;3.72;;;17.10;79.40;;;;;;5070084;28;20032;-75
2022/06/19 10:50:08;;;;;;;15.27;4.10;;;17.20;79.50;;;;;;5087182;28;20390;-69
2022/06/19 10:52:53;;;;;;;12.13;4.03;;;17.20;78.60;;;;;;5104578;28;20114;-69
2022/06/19 10:55:34;;;;;;;11.68;4.15;;;17.30;78.60;;;;;;5101096;28;20127;-67
2022/06/19 10:58:19;;;;;;;6.53;2.72;;;17.30;77.90;;;;;;5096249;28;20109;-68
2022/06/19 11:00:51;;;;;;;7.47;2.70;;;17.30;76.50;;;;;;5099007;28;20023;-68
2022/06/19 11:06:46;;;;;;;6.22;2.50;;;17.30;74.50;;;;;;5100061;28;20100;-69
2022/06/19 11:09:49;;;;;;;7.07;2.53;;;17.30;74.00;;;;;;5107033;28;20040;-71
2022/06/19 11:12:24;;;;;;;13.02;2.63;;;17.40;73.80;;;;;;5084279;28;20146;-72
2022/06/19 11:14:53;;;;;;;3.50;1.65;;;17.40;73.30;;;;;;5102080;28;20059;-67
2022/06/19 11:17:32;;;;;;;7.47;3.13;;;17.40;73.20;;;;;;5105828;27;20032;-69
2022/06/19 11:20:17;;;;;;;8.15;4.53;;;17.40;73.30;;;;;;5105808;28;20627;-67
2022/06/19 11:22:49;;;;;;;6.80;3.95;;;17.50;73.10;;;;;;5104846;28;20062;-69
2022/06/19 11:25:19;;;;;;;5.32;3.72;;;17.50;73.00;;;;;;5100965;28;20042;-69
2022/06/19 11:28:07;;;;;;;5.68;3.35;;;17.50;72.60;;;;;;5101701;28;20035;-70
2022/06/19 11:30:42;;;;;;;13.77;4.07;;;17.60;72.70;;;;;;5102972;28;20414;-71
2022/06/19 11:33:18;;;;;;;9.97;3.93;;;17.70;72.70;;;;;;5095827;28;20027;-74
2022/06/19 11:35:53;;;;;;;7.25;3.42;;;17.70;72.40;;;;;;5101959;28;20060;-68
2022/06/19 11:38:39;;;;;;;8.88;4.05;;;17.70;71.60;;;;;;5105215;28;20036;-69
2022/06/19 11:41:25;;;;;;;8.98;5.82;;;17.70;71.30;;;;;;5097481;28;20119;-69
2022/06/19 11:44:14;;;;;;;8.50;4.53;;;17.80;71.50;;;;;;5091727;28;20024;-73
2022/06/19 11:46:54;;;;;;;7.10;3.63;;;17.80;71.20;;;;;;5093991;28;20505;-69
2022/06/19 11:49:36;;;;;;;4.55;3.60;;;17.90;71.30;;;;;;5096198;28;20024;-73
2022/06/19 11:52:25;;;;;;;7.72;2.53;;;17.90;71.00;;;;;;5091770;28;20079;-70
2022/06/19 11:54:53;;;;;;;7.07;2.80;;;18.00;70.80;;;;;;5092901;28;20078;-70
2022/06/19 11:57:26;;;;;;;4.50;2.30;;;18.00;70.30;;;;;;5092265;28;20360;-71
2022/06/19 11:59:59;;;;;;;5.18;2.97;;;18.10;70.40;;;;;;5092532;28;20464;-71
2022/06/19 12:02:30;;;;;;;5.80;2.00;;;18.10;69.60;;;;;;5093822;28;20080;-71
2022/06/19 12:05:01;;;;;;;3.00;1.92;;;18.10;69.00;;;;;;5097213;28;20028;-68
2022/06/19 12:07:32;;;;;;;4.10;1.95;;;18.10;68.40;;;;;;5091965;28;20035;-69
2022/06/19 12:10:07;;;;;;;4.10;2.25;;;18.10;68.40;;;;;;5092607;28;20028;-69
2022/06/19 12:12:35;;;;;;;5.55;2.50;;;18.20;68.50;;;;;;5093873;28;20514;-71
2022/06/19 12:15:12;;;;;;;3.65;2.45;;;18.20;68.30;;;;;;5092439;28;20032;-70
2022/06/19 12:17:45;;;;;;;3.35;2.10;;;18.20;68.10;;;;;;5092243;28;20132;-66
2022/06/19 12:20:12;;;;;;;2.95;1.95;;;18.30;68.10;;;;;;5093189;28;20047;-69
2022/06/19 12:23:00;;;;;;;5.40;2.25;;;18.30;68.00;;;;;;5094979;28;20039;-67
2022/06/19 12:25:31;;;;;;;3.63;1.73;;;18.30;67.80;;;;;;5091028;28;20028;-67
2022/06/19 12:28:20;;;;;;;5.28;1.73;;;18.40;67.70;;;;;;5095978;28;20594;-68
2022/06/19 12:31:01;;;;;;;4.50;1.95;;;18.40;67.70;;;;;;5093397;28;20040;-67
2022/06/19 12:33:33;;;;;;;4.38;2.13;;;18.40;67.80;;;;;;5096153;28;20036;-70
2022/06/19 12:36:00;;;;;;;3.38;1.75;;;18.40;67.50;;;;;;5096048;28;20552;-69
2022/06/19 12:38:32;;;;;;;2.92;1.60;;;18.40;67.40;;;;;;5082103;28;20055;-68
2022/06/19 12:41:07;;;;;;;6.07;1.80;;;18.40;67.10;;;;;;5097399;28;20062;-68
2022/06/19 12:43:45;;;;;;;;;;;18.40;67.20;;;;;;5098620;28;20040;-67
2022/06/19 12:46:23;;;;;;;5.80;2.00;;;18.40;67.00;;;;;;5097322;28;19908;-69
2022/06/19 12:49:22;;;;;;;5.05;1.40;;;18.40;66.60;;;;;;5099190;28;20023;-68
2022/06/19 12:52:16;;;;;;;3.88;1.73;;;18.50;66.90;;;;;;5095988;28;20037;-70
2022/06/19 12:54:58;;;;;;;4.32;2.05;;;18.50;66.70;;;;;;5084669;28;20044;-68
2022/06/19 12:57:48;;;;;;;19.95;13.00;;;18.50;66.50;;;;;;5096838;28;20028;-70
2022/06/19 13:00:25;;;;;;;8.93;3.83;;;18.50;66.10;;;;;;5095678;28;20035;-72
2022/06/19 13:03:24;;;;;;;6.65;3.13;;;18.50;66.00;;;;;;5095823;28;20142;-71
2022/06/19 13:06:18;;;;;;;4.05;2.25;;;18.50;65.60;;;;;;5090899;28;20042;-70
2022/06/19 13:09:21;;;;;;;5.68;2.17;;;18.50;65.40;;;;;;5097451;28;20032;-70
2022/06/19 13:11:48;;;;;;;6.10;1.85;;;18.50;64.90;;;;;;5097060;28;20061;-71
2022/06/19 13:14:31;;;;;;;6.05;1.95;;;18.50;64.70;;;;;;5097417;28;20043;-70
2022/06/19 13:17:18;;;;;;;6.35;2.55;;;18.50;64.50;;;;;;5095348;28;20032;-70
2022/06/19 13:20:14;;;;;;;6.32;2.10;;;18.50;64.30;;;;;;5093662;28;20039;-72
2022/06/19 13:23:14;;;;;;;15.80;2.60;;;18.50;64.40;;;;;;5094799;28;20090;-71
2022/06/19 13:25:49;;;;;;;6.95;1.98;;;18.50;65.00;;;;;;5094291;28;20040;-72
2022/06/19 13:28:28;;;;;;;;;;;18.60;65.10;;;;;;5098183;28;20032;-72
2022/06/19 13:31:22;;;;;;;8.27;2.45;;;18.50;65.20;;;;;;5095097;28;19927;-71
2022/06/19 13:34:24;;;;;;;7.18;2.10;;;18.60;65.80;;;;;;5085012;28;20036;-72